createdAt,value
2022-10-08T00:01:28.947Z,15.93
2022-10-08T00:03:57.774Z,12.73
2022-10-08T00:06:28.209Z,15.68
2022-10-08T00:08:57.899Z,10.88
2022-10-08T00:11:28.533Z,14.25
2022-10-08T00:13:58.746Z,8.55
2022-10-08T00:16:28.871Z,13.13
2022-10-08T00:18:59.304Z,10.10
2022-10-08T00:21:29.874Z,10.68
2022-10-08T00:23:59.052Z,14.38
2022-10-08T00:26:29.616Z,15.15
2022-10-08T00:29:00.436Z,13.57
2022-10-08T00:31:32.347Z,14.38
2022-10-08T00:34:04.329Z,13.45
2022-10-08T00:36:33.932Z,12.48
2022-10-08T00:39:04.926Z,14.65
2022-10-08T00:41:35.014Z,10.10
2022-10-08T00:44:20.509Z,11.70
2022-10-08T00:46:50.867Z,11.70
2022-10-08T00:49:21.839Z,10.85
2022-10-08T00:51:54.092Z,8.52
2022-10-08T00:54:23.811Z,8.93
2022-10-08T00:56:54.950Z,14.07
2022-10-08T00:59:25.096Z,12.93
2022-10-08T01:01:54.091Z,12.93
2022-10-08T01:04:22.178Z,9.30
2022-10-08T01:06:57.867Z,10.18
2022-10-08T01:09:31.592Z,15.20
2022-10-08T01:12:09.625Z,13.70
2022-10-08T01:14:46.459Z,16.30
2022-10-08T01:17:25.043Z,11.57
2022-10-08T01:20:16.862Z,11.13
2022-10-08T01:23:04.177Z,8.90
2022-10-08T01:25:37.888Z,12.32
2022-10-08T01:28:13.356Z,13.48
2022-10-08T01:33:15.950Z,15.57
2022-10-08T01:35:50.658Z,17.75
2022-10-08T01:38:23.209Z,6.77
2022-10-08T01:40:54.775Z,16.05
2022-10-08T01:43:26.137Z,16.48
2022-10-08T01:45:58.803Z,11.63
2022-10-08T01:48:30.957Z,10.07
2022-10-08T01:51:04.211Z,11.70
2022-10-08T01:53:37.525Z,16.75
2022-10-08T01:56:08.851Z,10.68
2022-10-08T01:58:46.162Z,11.18
2022-10-08T02:01:28.757Z,12.68
2022-10-08T02:04:14.472Z,13.35
2022-10-08T02:06:49.133Z,12.70
2022-10-08T02:09:17.107Z,11.83
2022-10-08T02:11:45.196Z,12.82
2022-10-08T02:14:14.664Z,11.18
2022-10-08T02:16:51.497Z,14.63
2022-10-08T02:19:29.948Z,11.88
2022-10-08T02:22:00.792Z,12.10
2022-10-08T02:24:34.491Z,11.52
2022-10-08T02:27:05.635Z,15.50
2022-10-08T02:29:38.751Z,12.77
2022-10-08T02:32:11.261Z,17.58
2022-10-08T02:34:43.224Z,14.15
2022-10-08T02:37:15.422Z,13.85
2022-10-08T02:39:48.769Z,9.00
2022-10-08T02:42:22.639Z,13.05
2022-10-08T02:44:55.817Z,14.68
2022-10-08T02:47:27.514Z,10.80
2022-10-08T02:50:01.569Z,7.18
2022-10-08T02:52:36.863Z,10.60
2022-10-08T02:55:12.613Z,14.30
2022-10-08T02:57:45.380Z,10.23
2022-10-08T03:00:15.150Z,13.75
2022-10-08T03:02:50.711Z,9.85
2022-10-08T03:05:21.096Z,10.23
2022-10-08T03:07:51.649Z,10.80
2022-10-08T03:10:19.938Z,15.18
2022-10-08T03:12:48.796Z,9.30
2022-10-08T03:15:18.488Z,8.57
2022-10-08T03:17:48.292Z,10.73
2022-10-08T03:20:16.393Z,10.88
2022-10-08T03:22:44.879Z,14.95
2022-10-08T03:25:13.043Z,15.27
2022-10-08T03:27:41.012Z,13.32
2022-10-08T03:30:10.314Z,11.23
2022-10-08T03:32:39.640Z,11.85
2022-10-08T03:35:07.926Z,12.45
2022-10-08T03:37:35.924Z,14.50
2022-10-08T03:40:03.971Z,9.40
2022-10-08T03:42:31.909Z,10.05
2022-10-08T03:45:01.375Z,9.65
2022-10-08T03:47:29.312Z,9.60
2022-10-08T03:49:58.646Z,11.15
2022-10-08T03:52:26.647Z,8.70
2022-10-08T03:54:54.580Z,13.50
2022-10-08T03:57:22.543Z,7.72
2022-10-08T03:59:50.548Z,11.25
2022-10-08T04:02:18.566Z,9.57
2022-10-08T04:04:46.560Z,8.70
2022-10-08T04:07:17.097Z,13.27
2022-10-08T04:09:45.933Z,12.68
2022-10-08T04:12:13.886Z,18.98
2022-10-08T04:14:41.835Z,12.98
2022-10-08T04:17:09.779Z,10.02
2022-10-08T04:19:38.403Z,11.23
2022-10-08T04:22:08.556Z,14.88
2022-10-08T04:24:38.752Z,7.57
2022-10-08T04:27:08.809Z,9.32
2022-10-08T04:29:36.773Z,6.65
2022-10-08T04:32:04.732Z,13.55
2022-10-08T04:34:32.671Z,12.48
2022-10-08T04:37:00.635Z,9.15
2022-10-08T04:39:28.603Z,11.93
2022-10-08T04:41:57.929Z,8.77
2022-10-08T04:44:25.978Z,11.23
2022-10-08T04:46:53.932Z,10.40
2022-10-08T04:49:21.854Z,9.65
2022-10-08T04:51:49.796Z,11.25
2022-10-08T04:54:17.772Z,10.35
2022-10-08T04:56:45.736Z,10.45
2022-10-08T04:59:15.047Z,13.43
2022-10-08T05:01:43.048Z,9.85
2022-10-08T05:04:11.110Z,7.43
2022-10-08T05:06:39.447Z,16.85
2022-10-08T05:09:07.419Z,18.38
2022-10-08T05:11:35.414Z,9.65
2022-10-08T05:14:03.607Z,14.13
2022-10-08T05:16:33.420Z,15.00
2022-10-08T05:19:01.616Z,12.15
2022-10-08T05:21:31.187Z,16.50
2022-10-08T05:24:01.627Z,14.40
2022-10-08T05:26:58.156Z,10.30
2022-10-08T05:29:19.696Z,11.52
2022-10-08T05:31:49.047Z,11.13
2022-10-08T05:34:17.242Z,9.50
2022-10-08T05:36:45.222Z,19.33
2022-10-08T05:39:13.168Z,6.88
2022-10-08T05:41:41.816Z,9.27
2022-10-08T05:44:11.529Z,14.00
2022-10-08T05:46:39.806Z,12.15
2022-10-08T05:49:14.157Z,12.10
2022-10-08T05:51:42.153Z,16.92
2022-10-08T05:54:10.115Z,8.48
2022-10-08T05:56:38.075Z,11.13
2022-10-08T05:59:06.186Z,11.18
2022-10-08T06:01:34.985Z,9.27
2022-10-08T06:04:08.835Z,12.95
2022-10-08T06:06:38.955Z,12.98
2022-10-08T06:09:07.648Z,8.80
2022-10-08T06:11:36.897Z,16.10
2022-10-08T06:14:07.092Z,11.45
2022-10-08T06:16:35.818Z,12.02
2022-10-08T06:19:04.178Z,14.32
2022-10-08T06:21:32.631Z,12.68
2022-10-08T06:24:03.977Z,10.43
2022-10-08T06:26:35.986Z,12.80
2022-10-08T06:29:05.637Z,13.93
2022-10-08T06:31:34.592Z,8.57
2022-10-08T06:34:04.321Z,10.02
2022-10-08T06:36:34.077Z,10.75
2022-10-08T06:39:06.753Z,15.93
2022-10-08T06:41:35.223Z,16.15
2022-10-08T06:44:04.131Z,13.50
2022-10-08T06:46:32.846Z,14.07
2022-10-08T06:49:01.843Z,13.07
2022-10-08T06:51:30.750Z,13.13
2022-10-08T06:54:06.049Z,15.73
2022-10-08T06:56:37.444Z,19.40
2022-10-08T06:59:07.028Z,12.52
2022-10-08T07:01:35.917Z,15.52
2022-10-08T07:04:05.701Z,12.30
2022-10-08T07:06:33.945Z,20.15
2022-10-08T07:09:02.684Z,22.25
2022-10-08T07:11:32.128Z,10.75
2022-10-08T07:14:01.846Z,11.38
2022-10-08T07:16:30.068Z,16.05
2022-10-08T07:18:59.394Z,20.98
2022-10-08T07:21:28.910Z,17.25
2022-10-08T07:23:59.324Z,17.70
2022-10-08T07:26:29.432Z,11.65
2022-10-08T07:28:59.020Z,14.23
2022-10-08T07:31:29.773Z,19.25
2022-10-08T07:33:58.228Z,12.77
2022-10-08T07:36:27.269Z,15.07
2022-10-08T07:38:56.292Z,14.68
2022-10-08T07:41:24.626Z,13.63
2022-10-08T07:43:53.816Z,11.27
2022-10-08T07:46:22.584Z,14.95
2022-10-08T07:48:51.894Z,14.93
2022-10-08T07:51:21.076Z,14.32
2022-10-08T07:53:49.759Z,13.20
2022-10-08T07:56:20.865Z,13.50
2022-10-08T07:58:49.436Z,14.02
2022-10-08T08:01:22.083Z,14.23
2022-10-08T08:03:58.426Z,17.33
2022-10-08T08:06:26.872Z,17.92
2022-10-08T08:08:55.690Z,14.20
2022-10-08T08:11:25.250Z,15.35
2022-10-08T08:13:53.686Z,11.43
2022-10-08T08:16:25.495Z,12.75
2022-10-08T08:18:57.156Z,16.02
2022-10-08T08:21:27.246Z,15.75
2022-10-08T08:23:56.971Z,9.85
2022-10-08T08:26:28.239Z,14.98
2022-10-08T08:28:57.233Z,17.02
2022-10-08T08:31:27.139Z,10.48
2022-10-08T08:33:58.117Z,14.85
2022-10-08T08:36:28.179Z,10.98
2022-10-08T08:38:57.001Z,13.90
2022-10-08T08:41:45.182Z,9.88
2022-10-08T08:44:19.707Z,12.25
2022-10-08T08:46:52.834Z,14.68
2022-10-08T08:49:28.283Z,6.85
2022-10-08T08:54:25.168Z,13.43
2022-10-08T08:56:54.626Z,10.73
2022-10-08T08:59:29.124Z,12.45
2022-10-08T09:02:00.856Z,8.65
2022-10-08T09:04:44.952Z,12.05
2022-10-08T09:07:17.751Z,15.00
2022-10-08T09:09:49.342Z,10.30
2022-10-08T09:12:20.997Z,9.15
2022-10-08T09:14:51.835Z,7.65
2022-10-08T09:17:21.733Z,8.93
2022-10-08T09:19:51.913Z,6.53
2022-10-08T09:22:22.461Z,8.82
2022-10-08T09:24:52.265Z,10.60
2022-10-08T09:27:20.564Z,9.63
2022-10-08T09:29:50.677Z,6.57
2022-10-08T09:32:20.123Z,6.20
2022-10-08T09:34:49.421Z,9.27
2022-10-08T09:37:26.079Z,8.75
2022-10-08T09:40:20.270Z,8.77
2022-10-08T09:43:06.133Z,6.32
2022-10-08T09:45:35.382Z,11.70
2022-10-08T09:48:27.716Z,10.95
2022-10-08T09:51:00.135Z,8.80
2022-10-08T09:53:35.500Z,5.47
2022-10-08T09:56:04.933Z,4.97
2022-10-08T09:58:35.478Z,6.47
2022-10-08T10:01:13.612Z,10.45
2022-10-08T10:03:42.311Z,6.82
2022-10-08T10:06:10.636Z,13.48
2022-10-08T10:09:01.105Z,7.75
2022-10-08T10:11:35.352Z,5.40
2022-10-08T10:14:06.914Z,11.57
2022-10-08T10:16:37.651Z,11.00
2022-10-08T10:19:07.432Z,8.73
2022-10-08T10:21:39.201Z,10.02
2022-10-08T10:24:14.831Z,8.57
2022-10-08T10:26:44.338Z,7.70
2022-10-08T10:29:14.980Z,11.45
2022-10-08T10:31:45.972Z,6.63
2022-10-08T10:34:17.213Z,9.20
2022-10-08T10:36:47.449Z,6.03
2022-10-08T10:39:19.494Z,5.72
2022-10-08T10:41:50.002Z,5.22
2022-10-08T10:44:23.460Z,7.07
2022-10-08T10:46:52.971Z,5.63
2022-10-08T10:49:22.907Z,6.03
2022-10-08T10:52:04.563Z,7.13
2022-10-08T10:54:43.865Z,7.38
2022-10-08T10:57:15.829Z,6.13
2022-10-08T10:59:47.285Z,7.28
2022-10-08T11:02:20.954Z,6.40
2022-10-08T11:04:57.139Z,3.40
2022-10-08T11:07:38.418Z,5.22
2022-10-08T11:10:10.670Z,6.32
2022-10-08T11:12:43.163Z,3.90
2022-10-08T11:15:19.845Z,7.40
2022-10-08T11:18:03.242Z,7.72
2022-10-08T11:20:40.829Z,6.70
2022-10-08T11:23:14.645Z,3.70
2022-10-08T11:26:14.920Z,3.97
2022-10-08T11:28:45.912Z,5.18
2022-10-08T11:31:24.792Z,6.65
2022-10-08T11:33:58.990Z,5.25
2022-10-08T11:36:34.174Z,4.97
2022-10-08T11:39:06.164Z,4.20
2022-10-08T11:41:40.310Z,6.35
2022-10-08T11:44:10.991Z,6.00
2022-10-08T11:46:39.379Z,8.85
2022-10-08T11:49:22.933Z,3.45
2022-10-08T11:51:52.103Z,8.38
2022-10-08T11:54:26.587Z,3.53
2022-10-08T11:57:11.880Z,7.60
2022-10-08T11:59:42.828Z,5.22
2022-10-08T12:02:23.692Z,6.63
2022-10-08T12:04:53.489Z,5.38
2022-10-08T12:07:27.911Z,6.97
2022-10-08T12:10:20.237Z,4.35
2022-10-08T12:13:05.721Z,5.72
2022-10-08T12:15:54.977Z,6.95
2022-10-08T12:18:53.690Z,5.43
2022-10-08T12:21:55.193Z,5.57
2022-10-08T12:24:59.025Z,6.88
2022-10-08T12:27:30.652Z,4.13
2022-10-08T12:30:00.348Z,9.02
2022-10-08T12:32:30.713Z,3.78
2022-10-08T12:34:58.999Z,8.15
2022-10-08T12:37:34.617Z,5.97
2022-10-08T12:40:04.919Z,4.47
2022-10-08T12:42:37.268Z,6.53
2022-10-08T12:45:08.537Z,5.95
2022-10-08T12:47:43.629Z,4.95
2022-10-08T12:50:39.590Z,7.05
2022-10-08T12:53:09.369Z,4.68
2022-10-08T12:55:45.438Z,3.70
2022-10-08T12:58:18.960Z,7.88
2022-10-08T13:00:53.602Z,4.90
2022-10-08T13:03:23.260Z,5.45
2022-10-08T13:05:53.419Z,6.30
2022-10-08T13:08:35.211Z,3.40
2022-10-08T13:11:05.652Z,3.58
2022-10-08T13:13:52.025Z,4.25
2022-10-08T13:16:22.515Z,5.95
2022-10-08T13:18:53.987Z,7.43
2022-10-08T13:21:36.633Z,4.90
2022-10-08T13:24:06.161Z,5.70
2022-10-08T13:26:45.985Z,6.43
2022-10-08T13:29:27.289Z,5.10
2022-10-08T13:31:57.685Z,6.65
2022-10-08T13:34:29.827Z,6.55
2022-10-08T13:36:59.514Z,3.28
2022-10-08T13:39:30.791Z,4.53
2022-10-08T13:42:01.961Z,8.20
2022-10-08T13:44:30.540Z,5.60
2022-10-08T13:47:03.587Z,4.90
2022-10-08T13:49:34.133Z,5.25
2022-10-08T13:52:02.929Z,4.22
2022-10-08T13:54:33.427Z,8.85
2022-10-08T13:57:01.897Z,3.85
2022-10-08T13:59:30.976Z,6.85
2022-10-08T14:01:59.237Z,4.80
2022-10-08T14:04:30.017Z,5.10
2022-10-08T14:07:00.098Z,4.38
2022-10-08T14:09:30.243Z,7.18
2022-10-08T14:12:01.930Z,9.52
2022-10-08T14:14:29.914Z,4.75
2022-10-08T14:16:57.964Z,4.70
2022-10-08T14:19:25.996Z,5.97
2022-10-08T14:21:56.483Z,4.75
2022-10-08T14:24:25.806Z,6.80
2022-10-08T14:26:56.561Z,10.20
2022-10-08T14:29:24.613Z,5.10
2022-10-08T14:31:52.643Z,5.50
2022-10-08T14:34:20.643Z,7.35
2022-10-08T14:36:50.139Z,4.72
2022-10-08T14:39:18.098Z,10.75
2022-10-08T14:41:47.467Z,5.63
2022-10-08T14:44:16.772Z,5.07
2022-10-08T14:46:44.972Z,5.72
2022-10-08T14:49:12.939Z,9.32
2022-10-08T14:51:40.896Z,7.63
2022-10-08T14:54:10.172Z,6.15
2022-10-08T14:56:38.658Z,6.90
2022-10-08T14:59:08.178Z,5.80
2022-10-08T15:01:36.696Z,5.72
2022-10-08T15:04:05.024Z,8.13
2022-10-08T15:06:33.089Z,5.43
2022-10-08T15:09:01.448Z,6.72
2022-10-08T15:11:29.725Z,3.78
2022-10-08T15:13:59.228Z,6.43
2022-10-08T15:16:28.767Z,6.80
2022-10-08T15:18:57.063Z,5.20
2022-10-08T15:21:26.470Z,6.82
2022-10-08T15:23:56.641Z,6.70
2022-10-08T15:26:24.711Z,6.32
2022-10-08T15:28:53.655Z,4.90
2022-10-08T15:31:23.804Z,10.65
2022-10-08T15:33:56.123Z,8.88
2022-10-08T15:36:25.927Z,6.50
2022-10-08T15:38:58.135Z,11.13
2022-10-08T15:41:26.725Z,8.25
2022-10-08T15:43:57.464Z,5.38
2022-10-08T15:46:28.937Z,6.68
2022-10-08T15:48:58.425Z,6.88
2022-10-08T15:51:26.717Z,6.63
2022-10-08T15:53:54.721Z,10.18
2022-10-08T15:56:22.663Z,7.65
2022-10-08T15:58:51.651Z,5.85
2022-10-08T16:01:22.042Z,6.22
2022-10-08T16:03:52.103Z,6.57
2022-10-08T16:06:24.080Z,13.20
2022-10-08T16:08:52.557Z,7.30
2022-10-08T16:11:22.760Z,10.85
2022-10-08T16:13:51.941Z,5.30
2022-10-08T16:16:20.481Z,10.38
2022-10-08T16:18:51.086Z,4.57
2022-10-08T16:21:21.186Z,9.32
2022-10-08T16:23:50.545Z,9.10
2022-10-08T16:26:21.299Z,7.38
2022-10-08T16:28:50.971Z,5.63
2022-10-08T16:31:19.930Z,8.88
2022-10-08T16:33:48.694Z,7.90
2022-10-08T16:36:16.656Z,7.72
2022-10-08T16:38:44.672Z,9.25
2022-10-08T16:41:16.989Z,8.05
2022-10-08T16:43:47.261Z,11.95
2022-10-08T16:46:17.234Z,10.60
2022-10-08T16:48:46.019Z,6.15
2022-10-08T16:51:13.967Z,9.15
2022-10-08T16:53:41.982Z,8.25
2022-10-08T16:56:09.938Z,9.73
2022-10-08T16:58:39.240Z,11.20
2022-10-08T17:01:08.652Z,8.43
2022-10-08T17:03:36.981Z,7.32
2022-10-08T17:06:05.616Z,8.90
2022-10-08T17:08:33.691Z,6.97
2022-10-08T17:11:05.439Z,11.18
2022-10-08T17:13:34.041Z,12.23
2022-10-08T17:16:07.356Z,10.98
2022-10-08T17:18:35.766Z,12.52
2022-10-08T17:21:04.429Z,10.50
2022-10-08T17:23:36.767Z,12.52
2022-10-08T17:26:07.586Z,16.83
2022-10-08T17:28:38.470Z,14.32
2022-10-08T17:31:08.775Z,17.00
2022-10-08T17:33:37.130Z,17.30
2022-10-08T17:36:06.803Z,17.80
2022-10-08T17:38:35.585Z,17.15
2022-10-08T17:41:11.414Z,15.45
2022-10-08T17:43:39.413Z,20.92
2022-10-08T17:46:09.822Z,18.23
2022-10-08T17:48:38.299Z,16.40
2022-10-08T17:51:07.629Z,12.77
2022-10-08T17:53:35.597Z,13.88
2022-10-08T17:56:04.796Z,17.98
2022-10-08T17:58:32.767Z,17.02
2022-10-08T18:01:06.846Z,10.13
2022-10-08T18:03:37.106Z,11.93
2022-10-08T18:06:05.872Z,10.85
2022-10-08T18:08:34.326Z,10.70
2022-10-08T18:11:03.537Z,9.40
2022-10-08T18:13:31.859Z,12.05
2022-10-08T18:16:04.686Z,12.98
2022-10-08T18:18:33.178Z,16.50
2022-10-08T18:21:03.210Z,11.98
2022-10-08T18:23:31.651Z,13.07
2022-10-08T18:26:08.997Z,11.60
2022-10-08T18:28:39.437Z,11.75
2022-10-08T18:31:08.443Z,9.82
2022-10-08T18:33:38.014Z,13.35
2022-10-08T18:36:12.185Z,16.83
2022-10-08T18:38:40.452Z,10.85
2022-10-08T18:41:13.339Z,12.90
2022-10-08T18:43:41.590Z,12.15
2022-10-08T18:46:09.674Z,10.05
2022-10-08T18:48:38.202Z,6.22
2022-10-08T18:51:10.419Z,9.20
2022-10-08T18:53:41.469Z,7.80
2022-10-08T18:56:11.697Z,11.63
2022-10-08T18:58:39.978Z,10.05
2022-10-08T19:01:16.015Z,18.35
2022-10-08T19:03:46.342Z,12.68
2022-10-08T19:06:14.430Z,16.90
2022-10-08T19:08:43.832Z,17.80
2022-10-08T19:11:13.517Z,17.10
2022-10-08T19:13:41.589Z,33.20
2022-10-08T19:16:13.615Z,40.05
2022-10-08T19:18:42.849Z,29.10
2022-10-08T19:21:11.947Z,27.15
2022-10-08T19:23:40.732Z,25.50
2022-10-08T19:26:10.206Z,21.15
2022-10-08T19:28:39.499Z,21.80
2022-10-08T19:31:14.899Z,21.88
2022-10-08T19:33:42.978Z,20.80
2022-10-08T19:36:11.345Z,25.40
2022-10-08T19:38:39.332Z,22.52
2022-10-08T19:41:12.522Z,18.63
2022-10-08T19:43:43.797Z,22.85
2022-10-08T19:46:12.190Z,18.98
2022-10-08T19:48:40.692Z,21.10
2022-10-08T19:51:12.069Z,15.55
2022-10-08T19:53:40.542Z,16.83
2022-10-08T19:56:09.913Z,17.35
2022-10-08T19:58:41.408Z,16.40
2022-10-08T20:01:13.069Z,18.60
2022-10-08T20:03:41.097Z,17.35
2022-10-08T20:06:11.164Z,18.17
2022-10-08T20:08:39.451Z,14.45
2022-10-08T20:11:08.261Z,15.23
2022-10-08T20:13:36.925Z,19.13
2022-10-08T20:16:07.365Z,17.33
2022-10-08T20:18:35.870Z,19.13
2022-10-08T20:21:04.803Z,19.10
2022-10-08T20:23:33.116Z,13.05
2022-10-08T20:26:10.295Z,14.68
2022-10-08T20:28:38.452Z,14.50
2022-10-08T20:31:13.021Z,13.20
2022-10-08T20:33:41.714Z,16.27
2022-10-08T20:36:10.635Z,13.52
2022-10-08T20:38:38.962Z,12.75
2022-10-08T20:41:07.535Z,16.05
2022-10-08T20:43:37.600Z,15.93
2022-10-08T20:46:08.234Z,13.93
2022-10-08T20:48:38.792Z,11.20
2022-10-08T20:51:08.657Z,16.27
2022-10-08T20:53:36.877Z,13.27
2022-10-08T20:56:05.873Z,11.57
2022-10-08T20:58:34.803Z,11.05
2022-10-08T21:01:07.188Z,10.30
2022-10-08T21:03:37.220Z,9.30
2022-10-08T21:06:06.333Z,15.10
2022-10-08T21:08:36.985Z,18.77
2022-10-08T21:11:08.270Z,11.00
2022-10-08T21:13:37.133Z,11.32
2022-10-08T21:16:06.818Z,16.17
2022-10-08T21:18:35.282Z,13.70
2022-10-08T21:21:05.593Z,17.20
2022-10-08T21:23:33.744Z,12.10
2022-10-08T21:26:10.068Z,17.30
2022-10-08T21:28:38.071Z,15.10
2022-10-08T21:31:06.489Z,17.40
2022-10-08T21:33:36.997Z,15.73
2022-10-08T21:36:08.001Z,22.70
2022-10-08T21:38:36.011Z,25.30
2022-10-08T21:41:11.717Z,18.58
2022-10-08T21:43:40.233Z,20.33
2022-10-08T21:46:09.307Z,23.08
2022-10-08T21:48:38.038Z,29.15
2022-10-08T21:51:08.593Z,32.42
2022-10-08T21:53:38.610Z,28.92
2022-10-08T21:56:08.384Z,21.48
2022-10-08T21:58:39.077Z,20.65
2022-10-08T22:01:07.949Z,23.73
2022-10-08T22:03:36.179Z,17.77
2022-10-08T22:06:05.334Z,20.63
2022-10-08T22:08:34.743Z,19.25
2022-10-08T22:11:05.763Z,20.98
2022-10-08T22:13:34.240Z,21.98
2022-10-08T22:16:04.944Z,17.25
2022-10-08T22:18:34.289Z,23.55
2022-10-08T22:21:03.598Z,22.55
2022-10-08T22:23:31.955Z,19.75
2022-10-08T22:26:04.499Z,17.55
2022-10-08T22:28:33.205Z,15.55
2022-10-08T22:31:01.508Z,12.85
2022-10-08T22:33:30.417Z,14.68
2022-10-08T22:36:01.863Z,13.10
2022-10-08T22:38:30.787Z,15.07
2022-10-08T22:41:04.580Z,16.55
2022-10-08T22:43:32.676Z,26.88
2022-10-08T22:46:04.019Z,18.98
2022-10-08T22:48:32.844Z,17.85
2022-10-08T22:51:02.970Z,14.50
2022-10-08T22:53:31.729Z,12.45
2022-10-08T22:56:00.101Z,21.02
2022-10-08T22:58:29.379Z,15.88
2022-10-08T23:01:01.164Z,11.48
2022-10-08T23:03:29.587Z,14.20
2022-10-08T23:06:05.443Z,13.15
2022-10-08T23:08:33.728Z,18.30
2022-10-08T23:11:03.068Z,14.68
2022-10-08T23:13:33.013Z,17.13
2022-10-08T23:16:03.209Z,19.05
2022-10-08T23:18:31.784Z,16.08
2022-10-08T23:21:02.923Z,15.43
2022-10-08T23:23:31.200Z,18.63
2022-10-08T23:26:00.971Z,11.48
2022-10-08T23:28:29.849Z,19.08
2022-10-08T23:31:07.016Z,11.70
2022-10-08T23:33:35.417Z,10.88
2022-10-08T23:36:03.340Z,10.38
2022-10-08T23:38:31.261Z,11.93
2022-10-08T23:41:02.984Z,10.77
2022-10-08T23:43:35.337Z,10.02
2022-10-08T23:46:03.501Z,10.85
2022-10-08T23:48:33.181Z,9.07
2022-10-08T23:51:01.790Z,9.95
2022-10-08T23:53:29.791Z,11.63
2022-10-08T23:55:57.978Z,8.88
2022-10-08T23:58:25.979Z,9.57
